createdAt,value
2023-04-23T00:00:10.466Z,8.97
2023-04-23T00:02:44.634Z,8.95
2023-04-23T00:05:13.150Z,8.93
2023-04-23T00:07:42.748Z,8.87
2023-04-23T00:10:13.492Z,8.72
2023-04-23T00:12:43.654Z,8.81
2023-04-23T00:15:12.652Z,8.71
2023-04-23T00:17:39.938Z,8.70
2023-04-23T00:20:07.997Z,8.71
2023-04-23T00:22:35.730Z,8.75
2023-04-23T00:25:03.318Z,8.74
2023-04-23T00:27:30.439Z,8.56
2023-04-23T00:29:57.520Z,8.72
2023-04-23T00:32:24.650Z,8.69
2023-04-23T00:34:51.816Z,8.65
2023-04-23T00:37:18.770Z,8.66
2023-04-23T00:39:45.750Z,8.58
2023-04-23T00:42:13.949Z,8.61
2023-04-23T00:44:44.551Z,8.61
2023-04-23T00:47:12.297Z,8.50
2023-04-23T00:49:39.553Z,8.59
2023-04-23T00:52:06.779Z,8.54
2023-04-23T00:54:34.381Z,8.49
2023-04-23T00:57:02.393Z,8.49
2023-04-23T00:59:31.775Z,8.48
2023-04-23T01:01:59.241Z,8.46
2023-04-23T01:04:29.604Z,8.39
2023-04-23T01:06:57.957Z,8.37
2023-04-23T01:09:27.677Z,8.36
2023-04-23T01:11:58.041Z,8.24
2023-04-23T01:14:25.708Z,8.33
2023-04-23T01:16:53.520Z,8.33
2023-04-23T01:19:20.856Z,8.31
2023-04-23T01:21:50.078Z,8.29
2023-04-23T01:24:17.426Z,8.27
2023-04-23T01:26:46.817Z,8.21
2023-04-23T01:29:14.337Z,8.20
2023-04-23T01:31:42.244Z,8.17
2023-04-23T01:34:11.013Z,8.08
2023-04-23T01:36:38.207Z,8.08
2023-04-23T01:39:05.781Z,8.13
2023-04-23T01:41:33.995Z,8.00
2023-04-23T01:44:02.072Z,8.11
2023-04-23T01:46:29.458Z,8.07
2023-04-23T01:48:56.735Z,7.97
2023-04-23T01:51:25.710Z,7.95
2023-04-23T01:53:53.084Z,7.98
2023-04-23T01:56:25.416Z,7.97
2023-04-23T01:58:52.759Z,7.90
2023-04-23T02:01:19.770Z,7.88
2023-04-23T02:03:49.350Z,7.92
2023-04-23T02:06:16.422Z,7.90
2023-04-23T02:08:43.656Z,7.88
2023-04-23T02:11:10.666Z,7.87
2023-04-23T02:13:37.628Z,7.85
2023-04-23T02:16:05.354Z,7.81
2023-04-23T02:18:32.444Z,7.72
2023-04-23T02:21:00.336Z,7.59
2023-04-23T02:23:27.342Z,7.76
2023-04-23T02:25:54.277Z,7.75
2023-04-23T02:28:21.225Z,7.71
2023-04-23T02:30:48.440Z,7.71
2023-04-23T02:33:15.506Z,7.68
2023-04-23T02:35:42.599Z,7.67
2023-04-23T02:38:09.596Z,7.64
2023-04-23T02:40:36.721Z,7.57
2023-04-23T02:43:03.696Z,7.59
2023-04-23T02:45:30.957Z,7.59
2023-04-23T02:47:58.049Z,7.59
2023-04-23T02:50:25.142Z,7.46
2023-04-23T02:52:52.341Z,7.48
2023-04-23T02:55:19.354Z,7.53
2023-04-23T02:57:47.621Z,7.52
2023-04-23T03:00:15.280Z,7.49
2023-04-23T03:02:43.820Z,7.47
2023-04-23T03:05:12.751Z,7.46
2023-04-23T03:07:44.713Z,7.45
2023-04-23T03:10:11.839Z,7.44
2023-04-23T03:12:39.280Z,7.08
2023-04-23T03:15:07.229Z,7.41
2023-04-23T03:17:36.438Z,7.43
2023-04-23T03:20:04.404Z,7.43
2023-04-23T03:22:32.342Z,7.42
2023-04-23T03:24:59.578Z,7.44
2023-04-23T03:27:26.673Z,7.44
2023-04-23T03:29:53.768Z,7.41
2023-04-23T03:32:21.009Z,7.46
2023-04-23T03:34:48.344Z,7.45
2023-04-23T03:37:15.237Z,7.49
2023-04-23T03:39:42.458Z,7.48
2023-04-23T03:42:10.811Z,7.54
2023-04-23T03:44:39.054Z,7.55
2023-04-23T03:47:06.339Z,7.54
2023-04-23T03:49:33.874Z,7.69
2023-04-23T03:52:00.928Z,7.71
2023-04-23T03:54:29.898Z,7.72
2023-04-23T03:57:08.755Z,7.73
2023-04-23T03:59:39.409Z,7.78
2023-04-23T04:02:06.656Z,7.76
2023-04-23T04:04:34.327Z,7.87
2023-04-23T04:07:01.595Z,7.89
2023-04-23T04:09:29.524Z,7.78
2023-04-23T04:12:01.716Z,7.91
2023-04-23T04:14:29.022Z,7.82
2023-04-23T04:16:56.962Z,8.04
2023-04-23T04:19:24.474Z,8.06
2023-04-23T04:21:51.514Z,8.05
2023-04-23T04:24:18.546Z,8.06
2023-04-23T04:26:46.276Z,8.11
2023-04-23T04:29:13.489Z,8.20
2023-04-23T04:31:40.684Z,8.30
2023-04-23T04:34:09.082Z,8.36
2023-04-23T04:36:36.408Z,8.46
2023-04-23T04:39:03.641Z,7.85
2023-04-23T04:41:30.777Z,8.70
2023-04-23T04:43:58.648Z,8.78
2023-04-23T04:46:33.970Z,8.89
2023-04-23T04:49:01.055Z,8.99
2023-04-23T04:51:28.593Z,9.12
2023-04-23T04:53:56.770Z,9.09
2023-04-23T04:56:24.320Z,9.29
2023-04-23T04:58:51.502Z,9.29
2023-04-23T05:01:19.555Z,9.22
2023-04-23T05:03:46.742Z,9.39
2023-04-23T05:06:13.789Z,9.48
2023-04-23T05:08:41.927Z,9.48
2023-04-23T05:11:09.097Z,9.67
2023-04-23T05:13:36.034Z,9.65
2023-04-23T05:16:02.948Z,9.59
2023-04-23T05:18:33.994Z,9.79
2023-04-23T05:21:01.394Z,9.92
2023-04-23T05:23:28.297Z,9.96
2023-04-23T05:25:57.194Z,9.90
2023-04-23T05:28:24.448Z,10.11
2023-04-23T05:30:52.112Z,10.11
2023-04-23T05:33:19.146Z,10.10
2023-04-23T05:35:46.391Z,10.13
2023-04-23T05:38:13.313Z,9.81
2023-04-23T05:40:40.533Z,10.22
2023-04-23T05:43:07.739Z,9.97
2023-04-23T05:45:34.759Z,10.26
2023-04-23T05:48:01.864Z,10.01
2023-04-23T05:50:30.182Z,10.22
2023-04-23T05:52:57.420Z,10.22
2023-04-23T05:55:24.387Z,10.22
2023-04-23T05:57:51.432Z,9.76
2023-04-23T06:00:18.391Z,10.32
2023-04-23T06:02:56.050Z,10.34
2023-04-23T06:05:25.567Z,10.61
2023-04-23T06:07:53.227Z,10.66
2023-04-23T06:10:20.246Z,10.65
2023-04-23T06:12:47.874Z,10.68
2023-04-23T06:15:15.036Z,10.89
2023-04-23T06:17:41.945Z,10.85
2023-04-23T06:20:11.796Z,10.82
2023-04-23T06:22:39.645Z,10.95
2023-04-23T06:25:07.348Z,10.97
2023-04-23T06:27:34.287Z,11.11
2023-04-23T06:30:08.500Z,11.25
2023-04-23T06:32:36.460Z,11.35
2023-04-23T06:35:09.574Z,11.03
2023-04-23T06:37:36.631Z,11.34
2023-04-23T06:40:03.876Z,11.56
2023-04-23T06:42:31.087Z,11.47
2023-04-23T06:45:19.466Z,11.58
2023-04-23T06:47:46.629Z,11.62
2023-04-23T06:50:13.595Z,11.75
2023-04-23T06:52:40.672Z,11.87
2023-04-23T06:55:08.580Z,11.92
2023-04-23T06:57:36.139Z,11.99
2023-04-23T07:00:05.742Z,12.14
2023-04-23T07:02:37.936Z,12.14
2023-04-23T07:05:05.715Z,12.28
2023-04-23T07:07:33.074Z,12.40
2023-04-23T07:10:00.395Z,12.51
2023-04-23T07:12:27.502Z,12.88
2023-04-23T07:14:54.469Z,12.89
2023-04-23T07:17:21.783Z,12.59
2023-04-23T07:19:49.606Z,12.54
2023-04-23T07:22:16.655Z,12.79
2023-04-23T07:24:43.960Z,12.80
2023-04-23T07:27:11.250Z,12.73
2023-04-23T07:29:38.304Z,12.75
2023-04-23T07:32:05.297Z,12.93
2023-04-23T07:34:32.480Z,13.08
2023-04-23T07:36:59.807Z,13.26
2023-04-23T07:39:26.981Z,13.41
2023-04-23T07:41:54.119Z,13.58
2023-04-23T07:44:21.278Z,13.59
2023-04-23T07:46:48.000Z,13.82
2023-04-23T07:49:15.038Z,14.03
2023-04-23T07:51:42.212Z,14.12
2023-04-23T07:54:10.608Z,14.39
2023-04-23T07:56:37.681Z,14.70
2023-04-23T07:59:06.200Z,14.83
2023-04-23T08:01:34.102Z,15.21
2023-04-23T08:04:01.597Z,15.52
2023-04-23T08:06:30.373Z,15.72
2023-04-23T08:08:57.675Z,15.75
2023-04-23T08:11:24.632Z,15.97
2023-04-23T08:13:51.446Z,15.75
2023-04-23T08:16:18.125Z,15.54
2023-04-23T08:18:57.890Z,15.44
2023-04-23T08:21:32.613Z,15.70
2023-04-23T08:24:03.403Z,16.08
2023-04-23T08:26:31.225Z,16.03
2023-04-23T08:28:58.046Z,16.04
2023-04-23T08:31:27.086Z,16.28
2023-04-23T08:33:54.402Z,16.31
2023-04-23T08:36:21.120Z,16.20
2023-04-23T08:38:47.991Z,16.23
2023-04-23T08:41:15.564Z,16.26
2023-04-23T08:43:42.414Z,16.48
2023-04-23T08:46:11.854Z,16.41
2023-04-23T08:48:40.049Z,16.70
2023-04-23T08:51:09.522Z,16.93
2023-04-23T08:53:38.439Z,17.24
2023-04-23T08:56:07.213Z,17.38
2023-04-23T08:58:34.216Z,17.38
2023-04-23T09:01:01.827Z,17.17
2023-04-23T09:03:29.725Z,16.66
2023-04-23T09:05:57.459Z,16.56
2023-04-23T09:08:24.708Z,16.20
2023-04-23T09:10:52.629Z,16.13
2023-04-23T09:13:21.879Z,15.93
2023-04-23T09:15:56.887Z,16.37
2023-04-23T09:18:26.221Z,16.54
2023-04-23T09:20:54.365Z,16.66
2023-04-23T09:23:23.480Z,16.64
2023-04-23T09:25:50.596Z,16.65
2023-04-23T09:28:20.766Z,16.93
2023-04-23T09:30:49.817Z,17.41
2023-04-23T09:33:17.670Z,17.59
2023-04-23T09:35:44.949Z,17.40
2023-04-23T09:38:12.102Z,17.24
2023-04-23T09:40:39.211Z,17.27
2023-04-23T09:43:10.182Z,17.47
2023-04-23T09:45:37.965Z,17.40
2023-04-23T09:48:06.061Z,17.30
2023-04-23T09:50:38.610Z,17.27
2023-04-23T09:53:09.132Z,17.45
2023-04-23T09:55:42.019Z,17.19
2023-04-23T09:58:15.962Z,17.67
2023-04-23T10:00:47.224Z,17.73
2023-04-23T10:03:16.854Z,17.53
2023-04-23T10:06:00.623Z,17.71
2023-04-23T10:08:32.374Z,17.31
2023-04-23T10:11:10.045Z,17.25
2023-04-23T10:13:47.381Z,17.48
2023-04-23T10:16:24.392Z,17.77
2023-04-23T10:18:59.759Z,17.92
2023-04-23T10:21:39.482Z,18.18
2023-04-23T10:24:14.475Z,18.38
2023-04-23T10:26:43.544Z,18.48
2023-04-23T10:29:20.824Z,18.41
2023-04-23T10:31:48.950Z,18.16
2023-04-23T10:34:16.438Z,18.17
2023-04-23T10:36:43.973Z,18.14
2023-04-23T10:39:12.426Z,18.17
2023-04-23T10:41:42.992Z,18.20
2023-04-23T10:44:17.590Z,18.10
2023-04-23T10:46:58.756Z,17.89
2023-04-23T10:49:26.089Z,17.81
2023-04-23T10:54:41.850Z,17.80
2023-04-23T10:57:10.239Z,17.84
2023-04-23T10:59:56.506Z,17.96
2023-04-23T11:02:25.756Z,17.77
2023-04-23T11:05:01.608Z,17.80
2023-04-23T11:07:32.674Z,17.53
2023-04-23T11:10:01.572Z,17.94
2023-04-23T11:12:32.715Z,18.09
2023-04-23T11:15:12.322Z,18.40
2023-04-23T11:17:39.624Z,18.54
2023-04-23T11:20:18.985Z,18.69
2023-04-23T11:22:49.101Z,18.73
2023-04-23T11:25:22.142Z,18.93
2023-04-23T11:27:51.539Z,19.10
2023-04-23T11:30:21.464Z,19.29
2023-04-23T11:32:57.737Z,19.49
2023-04-23T11:35:30.388Z,19.72
2023-04-23T11:37:57.817Z,19.88
2023-04-23T11:40:25.898Z,19.95
2023-04-23T11:42:54.973Z,20.07
2023-04-23T11:45:26.937Z,19.94
2023-04-23T11:47:56.646Z,19.90
2023-04-23T11:50:26.600Z,19.86
2023-04-23T11:52:54.543Z,19.79
2023-04-23T11:55:22.923Z,19.95
2023-04-23T11:57:52.411Z,19.90
2023-04-23T12:00:24.173Z,19.85
2023-04-23T12:02:56.969Z,19.81
2023-04-23T12:05:41.625Z,20.19
2023-04-23T12:08:11.128Z,19.94
2023-04-23T12:10:46.632Z,20.24
2023-04-23T12:13:18.688Z,20.58
2023-04-23T12:15:50.524Z,20.61
2023-04-23T12:18:20.601Z,20.71
2023-04-23T12:20:47.594Z,20.79
2023-04-23T12:23:14.918Z,20.72
2023-04-23T12:25:42.700Z,20.70
2023-04-23T12:28:09.819Z,20.67
2023-04-23T12:30:44.184Z,20.89
2023-04-23T12:33:12.081Z,21.04
2023-04-23T12:35:41.674Z,21.11
2023-04-23T12:38:24.901Z,20.84
2023-04-23T12:40:57.105Z,21.01
2023-04-23T12:43:25.936Z,21.04
2023-04-23T12:45:54.741Z,20.72
2023-04-23T12:48:21.927Z,20.63
2023-04-23T12:50:49.066Z,20.63
2023-04-23T12:53:19.170Z,20.82
2023-04-23T12:55:46.296Z,20.51
2023-04-23T12:58:13.419Z,20.51
2023-04-23T13:00:40.699Z,20.36
2023-04-23T13:03:08.623Z,20.68
2023-04-23T13:05:35.992Z,20.67
2023-04-23T13:08:02.894Z,20.86
2023-04-23T13:10:30.993Z,21.08
2023-04-23T13:12:58.248Z,21.36
2023-04-23T13:15:28.696Z,21.45
2023-04-23T13:17:55.983Z,21.60
2023-04-23T13:20:23.464Z,21.80
2023-04-23T13:22:50.679Z,21.53
2023-04-23T13:25:17.618Z,21.66
2023-04-23T13:27:48.914Z,21.59
2023-04-23T13:30:16.100Z,21.60
2023-04-23T13:32:43.583Z,21.69
2023-04-23T13:35:10.668Z,21.74
2023-04-23T13:37:41.177Z,21.61
2023-04-23T13:40:08.466Z,21.83
2023-04-23T13:42:35.568Z,21.88
2023-04-23T13:45:05.158Z,21.89
2023-04-23T13:48:11.844Z,21.72
2023-04-23T13:50:39.750Z,21.45
2023-04-23T13:53:10.469Z,21.23
2023-04-23T13:55:38.373Z,20.96
2023-04-23T13:58:07.001Z,21.14
2023-04-23T14:00:34.370Z,20.77
2023-04-23T14:03:01.608Z,20.70
2023-04-23T14:05:28.849Z,20.28
2023-04-23T14:07:55.795Z,19.88
2023-04-23T14:10:23.114Z,19.82
2023-04-23T14:12:51.602Z,19.54
2023-04-23T14:15:18.908Z,19.13
2023-04-23T14:17:46.064Z,19.01
2023-04-23T14:20:15.568Z,18.99
2023-04-23T14:22:43.412Z,19.24
2023-04-23T14:25:15.450Z,18.96
2023-04-23T14:27:50.109Z,18.80
2023-04-23T14:30:21.365Z,18.82
2023-04-23T14:32:49.987Z,18.92
2023-04-23T14:35:17.708Z,19.01
2023-04-23T14:37:45.752Z,19.13
2023-04-23T14:40:15.906Z,19.21
2023-04-23T14:42:43.254Z,19.44
2023-04-23T14:45:10.642Z,19.69
2023-04-23T14:47:37.994Z,19.67
2023-04-23T14:50:05.872Z,19.72
2023-04-23T14:52:33.028Z,19.90
2023-04-23T14:55:00.029Z,19.93
2023-04-23T14:57:28.332Z,19.89
2023-04-23T14:59:56.015Z,20.06
2023-04-23T15:02:25.686Z,19.97
2023-04-23T15:04:52.814Z,19.86
2023-04-23T15:07:19.740Z,19.90
2023-04-23T15:09:46.835Z,19.95
2023-04-23T15:12:41.127Z,19.86
2023-04-23T15:15:44.827Z,19.72
2023-04-23T15:18:14.366Z,20.01
2023-04-23T15:20:42.304Z,20.32
2023-04-23T15:23:10.934Z,20.63
2023-04-23T15:25:39.357Z,21.96
2023-04-23T15:28:07.200Z,23.00
2023-04-23T15:30:34.544Z,22.92
2023-04-23T15:33:01.886Z,23.38
2023-04-23T15:35:29.025Z,23.71
2023-04-23T15:37:57.127Z,24.21
2023-04-23T15:40:24.469Z,25.31
2023-04-23T15:42:51.545Z,26.32
2023-04-23T15:45:18.788Z,27.58
2023-04-23T15:47:45.789Z,28.51
2023-04-23T15:50:13.250Z,29.44
2023-04-23T15:52:41.798Z,30.04
2023-04-23T15:55:09.370Z,30.26
2023-04-23T15:57:36.341Z,30.51
2023-04-23T16:00:03.896Z,30.85
2023-04-23T16:02:39.260Z,30.79
2023-04-23T16:05:06.921Z,30.20
2023-04-23T16:07:34.804Z,29.49
2023-04-23T16:10:02.546Z,28.72
2023-04-23T16:12:31.301Z,28.45
2023-04-23T16:14:59.472Z,28.22
2023-04-23T16:17:30.775Z,28.20
2023-04-23T16:19:58.067Z,28.56
2023-04-23T16:22:25.559Z,28.79
2023-04-23T16:24:52.792Z,29.15
2023-04-23T16:27:19.734Z,29.22
2023-04-23T16:29:46.777Z,29.11
2023-04-23T16:32:13.729Z,28.98
2023-04-23T16:34:41.682Z,28.82
2023-04-23T16:37:09.814Z,28.61
2023-04-23T16:39:36.927Z,28.36
2023-04-23T16:42:04.092Z,27.99
2023-04-23T16:44:31.116Z,27.61
2023-04-23T16:46:58.741Z,26.50
2023-04-23T16:49:25.808Z,25.19
2023-04-23T16:51:54.494Z,23.95
2023-04-23T16:54:22.726Z,22.92
2023-04-23T16:56:49.799Z,21.97
2023-04-23T16:59:17.140Z,21.21
2023-04-23T17:01:44.174Z,20.32
2023-04-23T17:04:11.650Z,19.80
2023-04-23T17:06:38.891Z,19.30
2023-04-23T17:09:08.701Z,18.89
2023-04-23T17:11:36.574Z,18.36
2023-04-23T17:14:03.455Z,17.98
2023-04-23T17:16:37.462Z,17.63
2023-04-23T17:19:06.424Z,17.24
2023-04-23T17:21:33.475Z,17.04
2023-04-23T17:24:00.711Z,16.89
2023-04-23T17:26:28.908Z,16.65
2023-04-23T17:28:56.715Z,16.48
2023-04-23T17:31:23.997Z,16.30
2023-04-23T17:33:53.533Z,16.08
2023-04-23T17:36:20.796Z,15.96
2023-04-23T17:38:47.817Z,15.75
2023-04-23T17:41:16.990Z,15.52
2023-04-23T17:43:45.024Z,15.57
2023-04-23T17:46:12.158Z,15.50
2023-04-23T17:48:39.336Z,15.37
2023-04-23T17:51:06.564Z,15.31
2023-04-23T17:53:34.175Z,15.30
2023-04-23T17:56:03.286Z,15.25
2023-04-23T17:58:30.852Z,15.20
2023-04-23T18:00:57.802Z,14.99
2023-04-23T18:03:27.046Z,15.00
2023-04-23T18:05:54.534Z,14.94
2023-04-23T18:08:21.676Z,14.79
2023-04-23T18:10:49.221Z,14.85
2023-04-23T18:13:17.078Z,14.78
2023-04-23T18:15:49.390Z,14.64
2023-04-23T18:18:17.897Z,14.61
2023-04-23T18:20:46.365Z,14.65
2023-04-23T18:23:14.393Z,14.60
2023-04-23T18:25:42.205Z,14.50
2023-04-23T18:28:09.871Z,14.43
2023-04-23T18:30:38.142Z,14.38
2023-04-23T18:33:35.820Z,14.37
2023-04-23T18:36:13.712Z,14.24
2023-04-23T18:38:45.390Z,14.20
2023-04-23T18:41:12.369Z,13.95
2023-04-23T18:43:39.585Z,13.63
2023-04-23T18:46:06.675Z,13.79
2023-04-23T18:48:33.823Z,13.85
2023-04-23T18:51:06.402Z,13.88
2023-04-23T18:53:33.619Z,13.87
2023-04-23T18:56:01.442Z,13.71
2023-04-23T18:58:30.196Z,13.80
2023-04-23T19:00:57.731Z,13.77
2023-04-23T19:03:27.076Z,13.78
2023-04-23T19:05:56.008Z,13.70
2023-04-23T19:08:28.486Z,13.62
2023-04-23T19:10:56.630Z,13.58
2023-04-23T19:13:24.502Z,13.63
2023-04-23T19:15:51.800Z,13.46
2023-04-23T19:18:19.746Z,13.37
2023-04-23T19:20:46.922Z,13.43
2023-04-23T19:23:13.985Z,13.41
2023-04-23T19:25:41.088Z,13.27
2023-04-23T19:28:08.024Z,13.36
2023-04-23T19:30:35.345Z,13.31
2023-04-23T19:33:02.570Z,12.87
2023-04-23T19:35:29.700Z,13.28
2023-04-23T19:37:56.833Z,13.30
2023-04-23T19:40:24.115Z,13.15
2023-04-23T19:42:51.407Z,13.10
2023-04-23T19:45:18.686Z,13.00
2023-04-23T19:47:45.706Z,13.09
2023-04-23T19:50:14.083Z,12.94
2023-04-23T19:52:41.693Z,12.92
2023-04-23T19:55:09.062Z,12.94
2023-04-23T19:57:36.853Z,12.91
2023-04-23T20:00:13.463Z,12.93
2023-04-23T20:02:41.468Z,12.73
2023-04-23T20:05:10.568Z,12.74
2023-04-23T20:07:38.841Z,12.64
2023-04-23T20:10:06.512Z,12.69
2023-04-23T20:12:33.987Z,12.55
2023-04-23T20:15:01.061Z,12.57
2023-04-23T20:17:32.926Z,12.54
2023-04-23T20:20:01.750Z,12.49
2023-04-23T20:22:36.888Z,12.56
2023-04-23T20:25:05.288Z,12.49
2023-04-23T20:27:33.804Z,12.46
2023-04-23T20:30:00.868Z,12.43
2023-04-23T20:32:32.496Z,12.43
2023-04-23T20:35:00.345Z,12.38
2023-04-23T20:37:28.480Z,12.30
2023-04-23T20:39:56.111Z,12.41
2023-04-23T20:42:23.255Z,12.15
2023-04-23T20:44:52.067Z,12.03
2023-04-23T20:47:19.066Z,12.20
2023-04-23T20:49:46.319Z,11.43
2023-04-23T20:52:14.727Z,11.85
2023-04-23T20:54:42.287Z,12.12
2023-04-23T20:57:09.341Z,12.04
2023-04-23T20:59:36.388Z,12.04
2023-04-23T21:02:03.643Z,11.85
2023-04-23T21:04:31.243Z,11.89
2023-04-23T21:06:58.613Z,11.95
2023-04-23T21:09:25.988Z,11.92
2023-04-23T21:11:53.841Z,11.95
2023-04-23T21:14:21.115Z,11.92
2023-04-23T21:16:47.999Z,11.81
2023-04-23T21:19:15.569Z,11.80
2023-04-23T21:21:42.524Z,11.71
2023-04-23T21:24:09.686Z,11.62
2023-04-23T21:26:36.717Z,11.70
2023-04-23T21:29:04.421Z,11.75
2023-04-23T21:31:47.371Z,11.57
2023-04-23T21:34:15.497Z,11.65
2023-04-23T21:36:44.824Z,11.61
2023-04-23T21:39:13.296Z,11.57
2023-04-23T21:41:40.749Z,11.61
2023-04-23T21:44:10.960Z,11.52
2023-04-23T21:46:38.469Z,11.90
2023-04-23T21:49:05.749Z,11.98
2023-04-23T21:51:37.126Z,12.05
2023-04-23T21:54:05.980Z,12.11
2023-04-23T21:56:34.175Z,12.15
2023-04-23T21:59:02.218Z,12.20
2023-04-23T22:01:29.477Z,12.20
2023-04-23T22:03:56.512Z,12.12
2023-04-23T22:06:23.734Z,12.09
2023-04-23T22:08:52.416Z,12.05
2023-04-23T22:11:19.614Z,11.96
2023-04-23T22:13:46.666Z,11.97
2023-04-23T22:16:27.486Z,11.86
2023-04-23T22:18:57.068Z,11.91
2023-04-23T22:21:24.400Z,11.70
2023-04-23T22:23:52.380Z,11.98
2023-04-23T22:26:19.811Z,12.03
2023-04-23T22:28:47.108Z,12.06
2023-04-23T22:31:14.781Z,11.98
2023-04-23T22:33:41.959Z,12.15
2023-04-23T22:36:09.058Z,12.17
2023-04-23T22:38:36.370Z,12.01
2023-04-23T22:41:03.431Z,12.10
2023-04-23T22:43:30.445Z,12.07
2023-04-23T22:45:57.555Z,12.06
2023-04-23T22:48:24.576Z,12.11
2023-04-23T22:50:52.683Z,12.23
2023-04-23T22:53:19.832Z,12.29
2023-04-23T22:55:47.291Z,12.26
2023-04-23T22:58:14.381Z,12.33
2023-04-23T23:00:41.874Z,12.31
2023-04-23T23:03:09.456Z,12.40
2023-04-23T23:05:36.650Z,12.44
2023-04-23T23:08:03.598Z,12.22
2023-04-23T23:10:30.832Z,12.53
2023-04-23T23:12:57.897Z,12.57
2023-04-23T23:15:25.142Z,12.55
2023-04-23T23:17:52.117Z,12.63
2023-04-23T23:20:19.809Z,12.66
2023-04-23T23:22:46.957Z,12.66
2023-04-23T23:25:16.257Z,12.69
2023-04-23T23:27:43.332Z,12.73
2023-04-23T23:30:10.757Z,12.70
2023-04-23T23:32:37.931Z,12.68
2023-04-23T23:35:06.490Z,12.62
2023-04-23T23:37:52.735Z,12.58
2023-04-23T23:40:20.915Z,12.45
2023-04-23T23:42:47.858Z,12.44
2023-04-23T23:45:15.367Z,12.34
2023-04-23T23:47:42.452Z,12.41
2023-04-23T23:50:10.123Z,12.37
2023-04-23T23:52:37.174Z,12.30
2023-04-23T23:55:07.862Z,11.57
2023-04-23T23:57:35.098Z,12.19
